Wayland, MA (01778)

12:32 PM EST on March 06, 2015 (GMT -0500)
Claypit Hill | Change Station
CLOSE
Current Station
Personal Weather Station
Location: Wayland, MA
Elevation: 250 ft
Nearby Weather Stations

Elev 250 ft 42.36 °N, 71.36 °W | Updated 6 seconds ago

Clear
Clear
23.0 °F
Feels Like 23 °F
N
3.0
Wind Variable Wind from WSW
Gusts 3.0 mph

Today
High -- | Low -- °F
--% Chance of Precip.
Yesterday
High -- | Low -- °F
Precip. -- in
6:13 AM 5:41 PM
Full, 99% visible
Pressure 30.52 in
Visibility 10.0 miles
Clouds Clear
Windchill 23 °F
Dew Point -7 °F
Humidity 26%
Rainfall in
Snow Depth Not available.
UV 6 out of 12
Pollen .50 out of 12
Air Quality Not available.
Flu Activity Not available.
METAR KBED 061656Z 13004KT 10SM CLR M07/M24 A3047 RMK AO2 SLP335 T10721239

More Conditions Fewer Conditions

Pressure 30.52 in
Visibility 10.0 miles
Clouds Clear
Windchill 23 °F
Dew Point -7 °F
Humidity 26%
Rainfall in
Snow Depth Not available.
UV 6 out of 12
Pollen .50 out of 12
Air Quality Not available.
Flu Activity Not available.
METAR KBED 061656Z 13004KT 10SM CLR M07/M24 A3047 RMK AO2 SLP335 T10721239

More Conditions Fewer Conditions

10-Day Weather Forecast

Almanac

Astronomy

Mar. 06, 2015 Rise Set
Actual Time
Civil Twilight
Nautical Twilight
Astronomical Twilight
Moon
Length of Visible Light
Length of Day
Tomorrow will be .
, % of the Moon is Illuminated

Today's Extremes

State Highs State Lows

Community

WunderPhotos

Upload Photos

1,803,345 photos uploaded!

WunderBlogs® & News

Nearby

Air Quality

  Air Quality AQ Index Pollutant
Not available.

Snow Depth

Station Depth Elevation

Earthquake Activity

City Distance Mag. Time & Date
Minimum magnitude displayed is 2.5.

Coastal Water Temperatures

Place Temperature

Nearby Weather Stations